createdAt,value
2022-09-13T00:01:02.813Z,99232.14
2022-09-13T00:02:06.357Z,99233.52
2022-09-13T00:03:11.954Z,99232.05
2022-09-13T00:04:16.342Z,99229.67
2022-09-13T00:05:19.705Z,99220.38
2022-09-13T00:06:22.038Z,99230.61
2022-09-13T00:07:25.400Z,99225.02
2022-09-13T00:08:29.914Z,99220.52
2022-09-13T00:09:33.632Z,99228.69
2022-09-13T00:10:39.482Z,99229.07
2022-09-13T00:11:42.929Z,99226.30
2022-09-13T00:12:45.178Z,99232.48
2022-09-13T00:13:47.851Z,99226.31
2022-09-13T00:14:51.789Z,99236.94
2022-09-13T00:15:55.253Z,99228.69
2022-09-13T00:16:59.731Z,99230.22
2022-09-13T00:18:03.443Z,99229.47
2022-09-13T00:19:07.563Z,99232.05
2022-09-13T00:20:10.974Z,99234.81
2022-09-13T00:21:15.931Z,99236.49
2022-09-13T00:22:20.377Z,99232.59
2022-09-13T00:23:25.657Z,99235.95
2022-09-13T00:24:29.802Z,99234.41
2022-09-13T00:25:33.190Z,99226.11
2022-09-13T00:26:36.532Z,99233.00
2022-09-13T00:27:40.412Z,99230.80
2022-09-13T00:28:48.473Z,99243.53
2022-09-13T00:29:51.816Z,99227.48
2022-09-13T00:30:55.206Z,99236.55
2022-09-13T00:32:00.149Z,99238.09
2022-09-13T00:33:04.213Z,99230.81
2022-09-13T00:34:09.219Z,99236.31
2022-09-13T00:35:12.672Z,99224.03
2022-09-13T00:36:17.859Z,99224.08
2022-09-13T00:37:22.202Z,99224.18
2022-09-13T00:38:24.605Z,99228.30
2022-09-13T00:39:27.737Z,99224.27
2022-09-13T00:40:30.618Z,99226.65
2022-09-13T00:41:34.328Z,99221.13
2022-09-13T00:42:38.263Z,99216.02
2022-09-13T00:43:45.621Z,99221.30
2022-09-13T00:45:05.735Z,99221.36
2022-09-13T00:46:08.630Z,99218.00
2022-09-13T00:47:14.222Z,99218.84
2022-09-13T00:48:25.346Z,99220.97
2022-09-13T00:49:33.548Z,99228.39
2022-09-13T00:50:41.641Z,99220.28
2022-09-13T00:51:47.350Z,99227.34
2022-09-13T00:52:51.378Z,99227.09
2022-09-13T00:53:57.888Z,99219.08
2022-09-13T00:55:06.001Z,99219.38
2022-09-13T00:56:13.998Z,99213.58
2022-09-13T00:57:19.393Z,99215.86
2022-09-13T00:58:31.961Z,99216.40
2022-09-13T00:59:45.204Z,99211.10
2022-09-13T01:00:51.358Z,99212.73
2022-09-13T01:01:56.626Z,99215.76
2022-09-13T01:03:02.193Z,99210.27
2022-09-13T01:04:11.969Z,99222.78
2022-09-13T01:05:15.054Z,99217.98
2022-09-13T01:06:22.631Z,99213.77
2022-09-13T01:07:27.830Z,99215.07
2022-09-13T01:08:35.140Z,99219.12
2022-09-13T01:09:41.503Z,99219.96
2022-09-13T01:10:45.321Z,99214.46
2022-09-13T01:11:58.114Z,99209.58
2022-09-13T01:13:09.982Z,99210.95
2022-09-13T01:14:14.103Z,99215.22
2022-09-13T01:15:17.442Z,99216.83
2022-09-13T01:16:21.162Z,99219.58
2022-09-13T01:17:24.631Z,99216.70
2022-09-13T01:18:27.917Z,99214.41
2022-09-13T01:19:30.586Z,99207.61
2022-09-13T01:20:36.291Z,99211.36
2022-09-13T01:21:45.645Z,99213.77
2022-09-13T01:22:53.318Z,99215.69
2022-09-13T01:24:14.599Z,99210.11
2022-09-13T01:25:22.684Z,99213.89
2022-09-13T01:26:46.181Z,99214.36
2022-09-13T01:27:56.535Z,99208.43
2022-09-13T01:29:18.372Z,99220.04
2022-09-13T01:30:23.295Z,99214.70
2022-09-13T01:31:28.429Z,99215.99
2022-09-13T01:32:39.915Z,99217.14
2022-09-13T01:33:57.414Z,99214.77
2022-09-13T01:35:02.618Z,99227.00
2022-09-13T01:36:09.127Z,99212.66
2022-09-13T01:37:20.359Z,99215.76
2022-09-13T01:38:29.511Z,99217.74
2022-09-13T01:39:34.263Z,99217.69
2022-09-13T01:40:56.463Z,99216.59
2022-09-13T01:42:01.315Z,99212.94
2022-09-13T01:43:24.571Z,99222.43
2022-09-13T01:44:30.166Z,99220.36
2022-09-13T01:45:51.171Z,99217.45
2022-09-13T01:47:05.323Z,99213.39
2022-09-13T01:48:21.103Z,99209.72
2022-09-13T01:49:28.474Z,99213.31
2022-09-13T01:50:33.230Z,99208.02
2022-09-13T01:51:42.692Z,99211.73
2022-09-13T01:52:47.240Z,99214.08
2022-09-13T01:54:10.694Z,99210.80
2022-09-13T01:55:17.278Z,99211.79
2022-09-13T01:56:21.880Z,99208.43
2022-09-13T01:57:29.868Z,99207.39
2022-09-13T01:58:38.078Z,99206.84
2022-09-13T01:59:49.104Z,99209.06
2022-09-13T02:00:55.185Z,99204.99
2022-09-13T02:02:02.111Z,99206.98
2022-09-13T02:03:08.918Z,99212.02
2022-09-13T02:04:18.899Z,99201.33
2022-09-13T02:05:25.331Z,99200.64
2022-09-13T02:06:31.028Z,99202.65
2022-09-13T02:07:37.934Z,99211.56
2022-09-13T02:08:43.677Z,99202.70
2022-09-13T02:09:52.510Z,99208.38
2022-09-13T02:10:56.783Z,99206.27
2022-09-13T02:12:13.921Z,99205.92
2022-09-13T02:13:22.247Z,99206.08
2022-09-13T02:14:27.301Z,99207.16
2022-09-13T02:15:31.968Z,99202.20
2022-09-13T02:16:41.898Z,99204.09
2022-09-13T02:17:50.990Z,99204.43
2022-09-13T02:18:56.583Z,99203.73
2022-09-13T02:20:01.759Z,99210.28
2022-09-13T02:21:07.041Z,99204.63
2022-09-13T02:22:13.574Z,99203.05
2022-09-13T02:23:21.778Z,99201.27
2022-09-13T02:24:34.882Z,99200.52
2022-09-13T02:25:40.068Z,99208.83
2022-09-13T02:26:45.501Z,99198.84
2022-09-13T02:27:49.688Z,99199.88
2022-09-13T02:28:56.566Z,99199.41
2022-09-13T02:30:02.851Z,99200.26
2022-09-13T02:31:07.862Z,99206.75
2022-09-13T02:32:13.999Z,99198.42
2022-09-13T02:33:19.331Z,99197.59
2022-09-13T02:34:23.561Z,99193.53
2022-09-13T02:35:29.578Z,99194.53
2022-09-13T02:36:37.157Z,99196.74
2022-09-13T02:37:43.379Z,99192.84
2022-09-13T02:38:48.656Z,99187.58
2022-09-13T02:39:53.350Z,99191.70
2022-09-13T02:40:57.852Z,99194.94
2022-09-13T02:42:18.391Z,99192.72
2022-09-13T02:43:24.080Z,99201.37
2022-09-13T02:44:45.549Z,99192.06
2022-09-13T02:45:51.920Z,99193.64
2022-09-13T02:47:02.181Z,99194.25
2022-09-13T02:48:09.371Z,99185.23
2022-09-13T02:49:13.878Z,99185.92
2022-09-13T02:50:22.304Z,99181.95
2022-09-13T02:51:44.182Z,99190.83
2022-09-13T02:53:05.755Z,99184.09
2022-09-13T02:54:23.999Z,99183.25
2022-09-13T02:55:30.175Z,99192.19
2022-09-13T02:56:35.919Z,99186.31
2022-09-13T02:57:41.054Z,99179.74
2022-09-13T02:58:47.484Z,99187.55
2022-09-13T02:59:50.923Z,99175.97
2022-09-13T03:00:54.970Z,99185.92
2022-09-13T03:02:10.325Z,99182.80
2022-09-13T03:03:17.033Z,99186.37
2022-09-13T03:04:19.462Z,99187.07
2022-09-13T03:05:25.917Z,99189.13
2022-09-13T03:06:30.340Z,99188.57
2022-09-13T03:07:33.631Z,99191.39
2022-09-13T03:08:37.454Z,99192.41
2022-09-13T03:09:42.518Z,99192.11
2022-09-13T03:11:00.326Z,99193.19
2022-09-13T03:12:14.015Z,99194.22
2022-09-13T03:13:19.364Z,99195.98
2022-09-13T03:14:24.592Z,99190.09
2022-09-13T03:15:33.784Z,99187.77
2022-09-13T03:16:40.045Z,99193.81
2022-09-13T03:17:46.408Z,99198.96
2022-09-13T03:19:03.728Z,99196.05
2022-09-13T03:20:22.524Z,99195.39
2022-09-13T03:21:39.135Z,99189.29
2022-09-13T03:22:44.217Z,99200.02
2022-09-13T03:23:57.332Z,99198.88
2022-09-13T03:25:05.317Z,99190.56
2022-09-13T03:26:23.862Z,99199.44
2022-09-13T03:27:30.411Z,99192.06
2022-09-13T03:28:52.399Z,99198.45
2022-09-13T03:30:00.094Z,99191.81
2022-09-13T03:31:18.124Z,99194.20
2022-09-13T03:32:26.311Z,99191.58
2022-09-13T03:33:35.799Z,99189.13
2022-09-13T03:34:50.790Z,99190.81
2022-09-13T03:36:14.427Z,99190.73
2022-09-13T03:37:22.841Z,99184.63
2022-09-13T03:38:28.017Z,99191.07
2022-09-13T03:39:33.298Z,99187.56
2022-09-13T03:40:38.580Z,99188.70
2022-09-13T03:41:42.710Z,99187.70
2022-09-13T03:42:52.061Z,99188.46
2022-09-13T03:44:00.920Z,99190.88
2022-09-13T03:45:05.446Z,99205.78
2022-09-13T03:46:12.088Z,99186.48
2022-09-13T03:47:16.006Z,99202.52
2022-09-13T03:48:19.501Z,99195.28
2022-09-13T03:49:24.053Z,99197.31
2022-09-13T03:50:27.662Z,99197.16
2022-09-13T03:51:33.055Z,99203.11
2022-09-13T03:52:35.770Z,99198.10
2022-09-13T03:53:42.049Z,99199.69
2022-09-13T03:54:46.181Z,99197.16
2022-09-13T03:55:50.210Z,99199.69
2022-09-13T03:57:10.418Z,99211.13
2022-09-13T03:58:13.933Z,99200.37
2022-09-13T03:59:18.584Z,99214.28
2022-09-13T04:00:24.795Z,99204.94
2022-09-13T04:01:28.041Z,99211.75
2022-09-13T04:02:31.838Z,99201.27
2022-09-13T04:03:35.425Z,99213.10
2022-09-13T04:04:42.168Z,99205.88
2022-09-13T04:05:46.821Z,99207.70
2022-09-13T04:06:49.584Z,99216.97
2022-09-13T04:07:52.878Z,99216.22
2022-09-13T04:09:00.040Z,99214.68
2022-09-13T04:10:02.720Z,99220.41
2022-09-13T04:11:06.626Z,99217.50
2022-09-13T04:12:16.315Z,99211.06
2022-09-13T04:13:22.597Z,99209.92
2022-09-13T04:14:27.709Z,99213.34
2022-09-13T04:15:35.078Z,99217.25
2022-09-13T04:16:38.630Z,99218.23
2022-09-13T04:17:42.505Z,99214.30
2022-09-13T04:18:45.174Z,99215.72
2022-09-13T04:19:47.435Z,99221.99
2022-09-13T04:20:54.470Z,99211.71
2022-09-13T04:22:01.224Z,99219.88
2022-09-13T04:23:08.802Z,99221.55
2022-09-13T04:24:15.744Z,99223.61
2022-09-13T04:25:21.976Z,99221.09
2022-09-13T04:26:25.055Z,99225.61
2022-09-13T04:27:28.463Z,99214.45
2022-09-13T04:28:31.994Z,99219.92
2022-09-13T04:29:36.468Z,99210.13
2022-09-13T04:30:42.698Z,99216.29
2022-09-13T04:31:45.260Z,99224.45
2022-09-13T04:32:48.692Z,99221.41
2022-09-13T04:33:52.102Z,99231.17
2022-09-13T04:34:55.285Z,99230.26
2022-09-13T04:36:00.879Z,99219.66
2022-09-13T04:37:05.133Z,99223.83
2022-09-13T04:38:09.781Z,99228.95
2022-09-13T04:39:15.364Z,99218.88
2022-09-13T04:40:18.197Z,99221.41
2022-09-13T04:41:21.965Z,99215.22
2022-09-13T04:42:26.201Z,99222.94
2022-09-13T04:43:29.591Z,99223.46
2022-09-13T04:44:32.378Z,99226.97
2022-09-13T04:45:35.180Z,99223.13
2022-09-13T04:46:41.710Z,99225.91
2022-09-13T04:47:46.859Z,99224.08
2022-09-13T04:48:51.362Z,99222.55
2022-09-13T04:49:55.154Z,99219.48
2022-09-13T04:51:07.535Z,99222.84
2022-09-13T04:52:11.418Z,99227.30
2022-09-13T04:53:16.073Z,99226.13
2022-09-13T04:54:20.307Z,99218.59
2022-09-13T04:55:26.335Z,99227.88
2022-09-13T04:56:31.610Z,99223.98
2022-09-13T04:57:37.883Z,99220.41
2022-09-13T04:58:41.441Z,99213.25
2022-09-13T04:59:44.841Z,99222.05
2022-09-13T05:00:49.596Z,99221.33
2022-09-13T05:01:53.241Z,99217.13
2022-09-13T05:02:57.434Z,99224.00
2022-09-13T05:04:00.951Z,99218.39
2022-09-13T05:05:04.768Z,99221.92
2022-09-13T05:06:10.152Z,99214.72
2022-09-13T05:07:12.393Z,99222.66
2022-09-13T05:08:14.600Z,99223.72
2022-09-13T05:09:17.732Z,99225.55
2022-09-13T05:10:20.715Z,99229.17
2022-09-13T05:11:24.440Z,99228.91
2022-09-13T05:12:27.944Z,99230.81
2022-09-13T05:13:31.867Z,99227.81
2022-09-13T05:14:35.883Z,99228.13
2022-09-13T05:15:40.928Z,99228.13
2022-09-13T05:16:44.879Z,99234.76
2022-09-13T05:17:47.653Z,99234.03
2022-09-13T05:18:52.287Z,99237.69
2022-09-13T05:19:57.691Z,99233.66
2022-09-13T05:21:02.044Z,99239.30
2022-09-13T05:22:05.545Z,99233.41
2022-09-13T05:23:09.261Z,99232.28
2022-09-13T05:24:12.650Z,99231.77
2022-09-13T05:25:15.948Z,99232.75
2022-09-13T05:26:20.824Z,99232.20
2022-09-13T05:27:24.324Z,99233.15
2022-09-13T05:28:28.745Z,99235.94
2022-09-13T05:29:35.130Z,99237.32
2022-09-13T05:30:42.355Z,99241.13
2022-09-13T05:31:45.374Z,99249.92
2022-09-13T05:32:49.578Z,99237.42
2022-09-13T05:33:55.758Z,99240.66
2022-09-13T05:34:59.305Z,99237.91
2022-09-13T05:36:02.495Z,99237.55
2022-09-13T05:37:06.105Z,99255.02
2022-09-13T05:38:09.506Z,99252.02
2022-09-13T05:39:39.771Z,99248.50
2022-09-13T05:40:19.627Z,99248.73
2022-09-13T05:41:23.039Z,99254.00
2022-09-13T05:42:25.614Z,99246.39
2022-09-13T05:43:30.988Z,99259.95
2022-09-13T05:44:34.398Z,99258.48
2022-09-13T05:45:37.165Z,99260.54
2022-09-13T05:46:42.390Z,99256.53
2022-09-13T05:47:54.408Z,99257.14
2022-09-13T05:49:00.430Z,99254.21
2022-09-13T05:50:19.145Z,99253.63
2022-09-13T05:51:13.801Z,99262.34
2022-09-13T05:52:16.993Z,99255.17
2022-09-13T05:53:20.612Z,99250.19
2022-09-13T05:54:24.223Z,99260.83
2022-09-13T05:55:28.326Z,99246.25
2022-09-13T05:56:32.731Z,99254.72
2022-09-13T05:57:37.455Z,99255.95
2022-09-13T05:58:42.071Z,99256.33
2022-09-13T05:59:49.674Z,99254.50
2022-09-13T06:00:53.576Z,99259.31
2022-09-13T06:01:57.100Z,99259.91
2022-09-13T06:03:01.870Z,99256.64
2022-09-13T06:04:05.691Z,99254.80
2022-09-13T06:05:10.675Z,99260.55
2022-09-13T06:06:13.952Z,99269.84
2022-09-13T06:07:17.359Z,99266.62
2022-09-13T06:08:20.754Z,99263.20
2022-09-13T06:09:23.006Z,99268.55
2022-09-13T06:10:26.439Z,99269.39
2022-09-13T06:11:29.899Z,99267.70
2022-09-13T06:12:33.313Z,99266.32
2022-09-13T06:13:36.527Z,99267.86
2022-09-13T06:14:39.277Z,99265.62
2022-09-13T06:15:45.473Z,99268.30
2022-09-13T06:16:50.708Z,99271.96
2022-09-13T06:17:55.327Z,99276.50
2022-09-13T06:18:58.403Z,99277.64
2022-09-13T06:20:00.875Z,99276.86
2022-09-13T06:21:07.711Z,99273.06
2022-09-13T06:22:11.227Z,99280.70
2022-09-13T06:23:13.991Z,99272.98
2022-09-13T06:24:17.401Z,99290.22
2022-09-13T06:25:19.850Z,99274.92
2022-09-13T06:26:25.350Z,99286.16
2022-09-13T06:27:30.096Z,99292.19
2022-09-13T06:28:36.764Z,99292.28
2022-09-13T06:29:38.163Z,99285.75
2022-09-13T06:30:40.939Z,99284.11
2022-09-13T06:31:45.721Z,99289.95
2022-09-13T06:32:51.115Z,99290.22
2022-09-13T06:34:01.899Z,99291.75
2022-09-13T06:35:04.869Z,99289.75
2022-09-13T06:36:09.836Z,99298.78
2022-09-13T06:37:13.769Z,99295.34
2022-09-13T06:38:18.745Z,99292.34
2022-09-13T06:39:20.983Z,99303.45
2022-09-13T06:40:26.530Z,99299.65
2022-09-13T06:41:28.833Z,99301.77
2022-09-13T06:42:36.505Z,99300.08
2022-09-13T06:43:40.232Z,99303.94
2022-09-13T06:44:44.379Z,99299.70
2022-09-13T06:45:48.109Z,99307.52
2022-09-13T06:46:51.581Z,99300.14
2022-09-13T06:47:57.758Z,99294.27
2022-09-13T06:49:05.265Z,99304.85
2022-09-13T06:50:10.378Z,99298.30
2022-09-13T06:51:15.211Z,99295.11
2022-09-13T06:52:19.760Z,99301.59
2022-09-13T06:53:23.045Z,99302.03
2022-09-13T06:54:26.414Z,99301.89
2022-09-13T06:55:29.855Z,99310.52
2022-09-13T06:56:35.243Z,99305.80
2022-09-13T06:57:38.642Z,99302.45
2022-09-13T06:58:42.219Z,99308.86
2022-09-13T06:59:45.851Z,99306.87
2022-09-13T07:00:51.875Z,99310.94
2022-09-13T07:01:56.548Z,99315.27
2022-09-13T07:02:59.814Z,99309.85
2022-09-13T07:04:03.423Z,99315.03
2022-09-13T07:05:07.344Z,99303.34
2022-09-13T07:06:22.171Z,99305.59
2022-09-13T07:07:24.335Z,99305.59
2022-09-13T07:08:28.446Z,99301.52
2022-09-13T07:09:31.078Z,99304.52
2022-09-13T07:10:34.268Z,99307.83
2022-09-13T07:11:43.041Z,99302.47
2022-09-13T07:12:48.068Z,99312.84
2022-09-13T07:13:53.975Z,99303.80
2022-09-13T07:14:57.168Z,99305.20
2022-09-13T07:16:03.926Z,99308.46
2022-09-13T07:17:09.279Z,99307.24
2022-09-13T07:18:12.904Z,99304.52
2022-09-13T07:19:19.558Z,99302.66
2022-09-13T07:20:24.892Z,99304.79
2022-09-13T07:21:28.747Z,99299.16
2022-09-13T07:22:33.404Z,99306.13
2022-09-13T07:23:38.993Z,99306.72
2022-09-13T07:24:44.390Z,99308.33
2022-09-13T07:25:48.847Z,99303.91
2022-09-13T07:26:52.432Z,99310.39
2022-09-13T07:27:55.624Z,99303.50
2022-09-13T07:28:59.869Z,99308.34
2022-09-13T07:30:04.299Z,99299.37
2022-09-13T07:31:15.492Z,99301.73
2022-09-13T07:32:21.674Z,99308.68
2022-09-13T07:33:26.208Z,99307.99
2022-09-13T07:34:30.336Z,99298.22
2022-09-13T07:35:33.679Z,99306.78
2022-09-13T07:36:37.775Z,99300.05
2022-09-13T07:37:42.208Z,99295.62
2022-09-13T07:38:48.558Z,99299.11
2022-09-13T07:39:51.860Z,99304.77
2022-09-13T07:40:58.825Z,99300.71
2022-09-13T07:42:04.594Z,99303.77
2022-09-13T07:43:08.518Z,99307.74
2022-09-13T07:44:10.980Z,99314.75
2022-09-13T07:45:18.454Z,99311.39
2022-09-13T07:46:23.130Z,99317.73
2022-09-13T07:47:28.279Z,99310.64
2022-09-13T07:48:35.996Z,99308.17
2022-09-13T07:49:39.690Z,99306.44
2022-09-13T07:50:42.456Z,99312.28
2022-09-13T07:51:47.420Z,99312.77
2022-09-13T07:52:51.231Z,99308.33
2022-09-13T07:53:57.933Z,99305.89
2022-09-13T07:55:04.552Z,99304.21
2022-09-13T07:56:10.861Z,99311.14
2022-09-13T07:57:14.427Z,99305.05
2022-09-13T07:58:18.582Z,99306.09
2022-09-13T07:59:26.938Z,99309.11
2022-09-13T08:00:30.011Z,99309.70
2022-09-13T08:01:37.963Z,99305.80
2022-09-13T08:02:41.394Z,99305.35
2022-09-13T08:03:46.471Z,99311.53
2022-09-13T08:04:51.204Z,99301.53
2022-09-13T08:05:54.385Z,99304.51
2022-09-13T08:06:58.111Z,99310.06
2022-09-13T08:08:00.980Z,99300.01
2022-09-13T08:09:08.563Z,99301.15
2022-09-13T08:10:12.179Z,99311.59
2022-09-13T08:11:21.455Z,99313.91
2022-09-13T08:12:25.240Z,99299.94
2022-09-13T08:13:28.645Z,99304.59
2022-09-13T08:14:32.002Z,99305.97
2022-09-13T08:15:35.346Z,99306.31
2022-09-13T08:16:41.270Z,99308.00
2022-09-13T08:17:45.170Z,99310.23
2022-09-13T08:18:49.502Z,99305.04
2022-09-13T08:19:52.797Z,99310.33
2022-09-13T08:20:56.730Z,99307.02
2022-09-13T08:22:00.137Z,99303.71
2022-09-13T08:23:03.530Z,99313.84
2022-09-13T08:24:09.374Z,99307.56
2022-09-13T08:25:12.895Z,99303.17
2022-09-13T08:26:17.482Z,99307.63
2022-09-13T08:27:20.997Z,99307.63
2022-09-13T08:28:27.661Z,99304.12
2022-09-13T08:29:30.649Z,99311.77
2022-09-13T08:30:38.914Z,99306.80
2022-09-13T08:31:42.839Z,99309.13
2022-09-13T08:32:49.374Z,99307.59
2022-09-13T08:33:57.127Z,99314.19
2022-09-13T08:35:00.781Z,99306.96
2022-09-13T08:36:07.931Z,99305.91
2022-09-13T08:37:13.424Z,99310.93
2022-09-13T08:38:16.832Z,99309.75
2022-09-13T08:39:19.177Z,99312.45
2022-09-13T08:40:25.218Z,99307.72
2022-09-13T08:41:29.749Z,99305.77
2022-09-13T08:42:44.327Z,99307.72
2022-09-13T08:44:01.098Z,99305.48
2022-09-13T08:45:04.809Z,99309.69
2022-09-13T08:46:12.335Z,99303.30
2022-09-13T08:47:24.121Z,99304.74
2022-09-13T08:48:30.251Z,99304.48
2022-09-13T08:49:38.454Z,99306.03
2022-09-13T08:50:46.985Z,99298.30
2022-09-13T08:51:52.579Z,99311.11
2022-09-13T08:52:56.731Z,99304.00
2022-09-13T08:53:59.577Z,99305.39
2022-09-13T08:55:05.694Z,99306.09
2022-09-13T08:56:13.584Z,99304.05
2022-09-13T08:57:18.876Z,99304.70
2022-09-13T08:58:26.875Z,99305.95
2022-09-13T08:59:39.698Z,99304.89
2022-09-13T09:00:46.211Z,99299.21
2022-09-13T09:01:56.812Z,99300.49
2022-09-13T09:03:20.904Z,99294.50
2022-09-13T09:04:32.862Z,99303.86
2022-09-13T09:05:48.368Z,99295.85
2022-09-13T09:06:56.167Z,99303.91
2022-09-13T09:08:01.541Z,99297.56
2022-09-13T09:09:07.040Z,99296.79
2022-09-13T09:10:18.498Z,99288.44
2022-09-13T09:11:24.010Z,99296.24
2022-09-13T09:12:35.310Z,99297.15
2022-09-13T09:13:41.009Z,99289.15
2022-09-13T09:14:47.114Z,99290.88
2022-09-13T09:15:52.226Z,99290.12
2022-09-13T09:16:58.456Z,99289.39
2022-09-13T09:18:09.745Z,99301.86
2022-09-13T09:19:14.817Z,99283.70
2022-09-13T09:20:20.006Z,99294.95
2022-09-13T09:21:27.806Z,99295.25
2022-09-13T09:22:32.890Z,99291.34
2022-09-13T09:23:44.340Z,99283.52
2022-09-13T09:24:50.114Z,99289.89
2022-09-13T09:25:55.501Z,99295.97
2022-09-13T09:26:58.999Z,99289.50
2022-09-13T09:28:01.868Z,99290.00
2022-09-13T09:29:12.369Z,99295.28
2022-09-13T09:30:17.177Z,99294.51
2022-09-13T09:31:21.708Z,99289.09
2022-09-13T09:32:44.099Z,99295.50
2022-09-13T09:33:51.576Z,99290.70
2022-09-13T09:35:13.876Z,99285.95
2022-09-13T09:36:23.254Z,99289.85
2022-09-13T09:37:28.918Z,99291.53
2022-09-13T09:38:34.096Z,99291.59
2022-09-13T09:39:40.050Z,99292.28
2022-09-13T09:40:43.936Z,99289.39
2022-09-13T09:41:47.340Z,99287.94
2022-09-13T09:42:51.159Z,99285.86
2022-09-13T09:43:57.062Z,99297.10
2022-09-13T09:45:03.481Z,99285.94
2022-09-13T09:46:07.842Z,99302.59
2022-09-13T09:47:13.215Z,99290.61
2022-09-13T09:48:17.597Z,99293.52
2022-09-13T09:49:45.179Z,99296.62
2022-09-13T09:50:50.201Z,99300.39
2022-09-13T09:51:53.768Z,99298.30
2022-09-13T09:53:07.916Z,99307.13
2022-09-13T09:54:12.251Z,99300.61
2022-09-13T09:55:18.800Z,99304.50
2022-09-13T09:56:25.949Z,99307.87
2022-09-13T09:57:49.207Z,99304.66
2022-09-13T09:58:54.722Z,99303.12
2022-09-13T09:59:59.978Z,99304.75
2022-09-13T10:01:03.529Z,99306.63
2022-09-13T10:02:15.951Z,99299.54
2022-09-13T10:03:21.250Z,99299.63
2022-09-13T10:04:24.891Z,99301.05
2022-09-13T10:05:28.459Z,99298.92
2022-09-13T10:06:35.188Z,99298.31
2022-09-13T10:07:40.525Z,99303.42
2022-09-13T10:09:01.534Z,99305.59
2022-09-13T10:10:07.935Z,99295.28
2022-09-13T10:11:14.400Z,99293.65
2022-09-13T10:12:18.638Z,99292.06
2022-09-13T10:13:23.501Z,99299.16
2022-09-13T10:14:42.118Z,99296.58
2022-09-13T10:15:56.514Z,99295.05
2022-09-13T10:17:04.684Z,99297.03
2022-09-13T10:18:43.043Z,99299.47
2022-09-13T10:19:25.939Z,99300.60
2022-09-13T10:20:29.550Z,99300.89
2022-09-13T10:21:33.157Z,99296.81
2022-09-13T10:22:36.587Z,99302.66
2022-09-13T10:23:40.691Z,99296.47
2022-09-13T10:24:45.031Z,99293.22
2022-09-13T10:26:00.738Z,99295.81
2022-09-13T10:27:04.772Z,99296.97
2022-09-13T10:28:10.164Z,99300.20
2022-09-13T10:29:14.510Z,99291.69
2022-09-13T10:30:20.091Z,99293.48
2022-09-13T10:31:25.326Z,99300.14
2022-09-13T10:32:29.341Z,99297.61
2022-09-13T10:33:34.506Z,99295.13
2022-09-13T10:34:38.397Z,99293.30
2022-09-13T10:35:41.500Z,99299.44
2022-09-13T10:36:52.627Z,99297.62
2022-09-13T10:37:52.158Z,99296.77
2022-09-13T10:38:59.100Z,99291.53
2022-09-13T10:40:09.029Z,99290.96
2022-09-13T10:41:16.297Z,99292.95
2022-09-13T10:42:21.114Z,99289.13
2022-09-13T10:43:29.640Z,99291.34
2022-09-13T10:44:45.098Z,99295.39
2022-09-13T10:45:53.073Z,99287.11
2022-09-13T10:46:56.952Z,99296.14
2022-09-13T10:48:03.067Z,99301.13
2022-09-13T10:49:06.375Z,99300.30
2022-09-13T10:50:13.679Z,99303.33
2022-09-13T10:51:31.769Z,99293.86
2022-09-13T10:52:38.065Z,99294.20
2022-09-13T10:53:43.050Z,99291.52
2022-09-13T10:54:47.118Z,99301.34
2022-09-13T10:55:54.875Z,99303.48
2022-09-13T10:56:59.516Z,99297.22
2022-09-13T10:58:04.991Z,99296.23
2022-09-13T10:59:19.381Z,99303.76
2022-09-13T11:00:26.431Z,99301.28
2022-09-13T11:01:42.645Z,99300.45
2022-09-13T11:03:05.628Z,99301.73
2022-09-13T11:04:29.424Z,99303.33
2022-09-13T11:05:39.904Z,99302.39
2022-09-13T11:06:44.339Z,99306.67
2022-09-13T11:08:06.644Z,99302.16
2022-09-13T11:09:18.505Z,99301.96
2022-09-13T11:10:24.715Z,99314.21
2022-09-13T11:13:03.163Z,99296.38
2022-09-13T11:14:11.380Z,99300.05
2022-09-13T11:15:20.547Z,99305.34
2022-09-13T11:16:31.731Z,99308.86
2022-09-13T11:17:51.159Z,99301.14
2022-09-13T11:18:57.570Z,99293.41
2022-09-13T11:20:04.092Z,99296.92
2022-09-13T11:21:14.815Z,99295.66
2022-09-13T11:22:33.571Z,99304.00
2022-09-13T11:23:38.126Z,99302.55
2022-09-13T11:25:03.967Z,99299.98
2022-09-13T11:26:11.862Z,99300.28
2022-09-13T11:27:23.116Z,99306.87
2022-09-13T11:28:38.399Z,99303.87
2022-09-13T11:30:03.224Z,99302.50
2022-09-13T11:31:14.563Z,99295.97
2022-09-13T11:32:20.874Z,99304.48
2022-09-13T11:33:28.874Z,99310.70
2022-09-13T11:34:36.452Z,99309.40
2022-09-13T11:35:52.603Z,99308.45
2022-09-13T11:36:59.717Z,99314.41
2022-09-13T11:38:22.070Z,99312.14
2022-09-13T11:39:33.293Z,99321.33
2022-09-13T11:40:38.470Z,99324.89
2022-09-13T11:43:23.538Z,99321.67
2022-09-13T11:44:36.149Z,99321.84
2022-09-13T11:45:56.766Z,99317.73
2022-09-13T11:47:12.336Z,99323.36
2022-09-13T11:48:28.629Z,99323.22
2022-09-13T11:49:33.771Z,99317.50
2022-09-13T11:50:55.251Z,99321.31
2022-09-13T11:52:06.486Z,99323.45
2022-09-13T11:53:20.632Z,99321.63
2022-09-13T11:54:25.295Z,99316.89
2022-09-13T11:55:33.712Z,99320.85
2022-09-13T11:56:42.334Z,99319.86
2022-09-13T11:57:49.170Z,99319.31
2022-09-13T11:59:00.627Z,99319.95
2022-09-13T12:00:17.906Z,99322.23
2022-09-13T12:01:23.516Z,99323.67
2022-09-13T12:02:30.146Z,99321.63
2022-09-13T12:03:49.401Z,99322.98
2022-09-13T12:05:22.121Z,99328.57
2022-09-13T12:06:21.806Z,99323.82
2022-09-13T12:07:31.798Z,99322.07
2022-09-13T12:08:45.748Z,99326.44
2022-09-13T12:09:50.192Z,99327.43
2022-09-13T12:10:55.681Z,99322.53
2022-09-13T12:12:01.130Z,99327.19
2022-09-13T12:13:05.931Z,99323.76
2022-09-13T12:14:10.468Z,99330.09
2022-09-13T12:15:20.981Z,99325.67
2022-09-13T12:16:32.856Z,99327.50
2022-09-13T12:17:45.539Z,99327.84
2022-09-13T12:19:00.992Z,99327.32
2022-09-13T12:20:06.280Z,99325.64
2022-09-13T12:21:13.497Z,99328.09
2022-09-13T12:22:19.717Z,99322.89
2022-09-13T12:23:27.226Z,99329.92
2022-09-13T12:24:47.513Z,99327.80
2022-09-13T12:26:12.011Z,99323.19
2022-09-13T12:27:27.634Z,99336.61
2022-09-13T12:28:43.527Z,99332.19
2022-09-13T12:29:49.568Z,99336.97
2022-09-13T12:30:55.520Z,99327.72
2022-09-13T12:32:02.489Z,99333.45
2022-09-13T12:33:06.873Z,99334.02
2022-09-13T12:34:13.175Z,99329.00
2022-09-13T12:35:25.835Z,99331.89
2022-09-13T12:36:39.231Z,99328.93
2022-09-13T12:38:00.488Z,99329.38
2022-09-13T12:39:16.531Z,99319.11
2022-09-13T12:40:39.773Z,99328.13
2022-09-13T12:41:58.203Z,99323.22
2022-09-13T12:43:20.417Z,99330.00
2022-09-13T12:44:37.917Z,99315.69
2022-09-13T12:45:52.745Z,99324.89
2022-09-13T12:46:57.461Z,99328.27
2022-09-13T12:48:04.831Z,99325.89
2022-09-13T12:49:16.585Z,99325.05
2022-09-13T12:50:43.587Z,99327.04
2022-09-13T12:51:49.189Z,99334.91
2022-09-13T12:53:01.987Z,99329.02
2022-09-13T12:54:25.745Z,99329.11
2022-09-13T12:55:46.945Z,99335.73
2022-09-13T12:57:02.732Z,99331.97
2022-09-13T12:58:07.812Z,99330.47
2022-09-13T12:59:17.682Z,99332.33
2022-09-13T13:00:27.611Z,99333.10
2022-09-13T13:01:34.508Z,99341.15
2022-09-13T13:02:45.857Z,99330.14
2022-09-13T13:03:50.167Z,99340.75
2022-09-13T13:04:55.894Z,99337.64
2022-09-13T13:06:09.427Z,99337.31
2022-09-13T13:07:14.488Z,99338.08
2022-09-13T13:08:23.257Z,99341.30
2022-09-13T13:09:46.317Z,99337.09
2022-09-13T13:11:05.117Z,99341.67
2022-09-13T13:12:10.936Z,99343.91
2022-09-13T13:13:23.306Z,99335.98